Time;durP1;ratioP1;P1;durP2;ratioP2;P2;SDS_P1;SDS_P2;PMS_P1;PMS_P2;Temp;Humidity;BMP_temperature;BMP_pressure;BME280_temperature;BME280_humidity;BME280_pressure;Samples;Min_cycle;Max_cycle;Signal;HPM_P1;HPM_P2
2023/11/02 00:01:12;;;;;;;3.97;1.02;;;12.20;99.90;;;12.42;70.80;98346.03;4948156;28;20100;-83
2023/11/02 00:03:43;;;;;;;5.22;1.25;;;12.20;99.90;;;12.46;70.96;98327.59;5014873;28;20049;-83
2023/11/02 00:06:33;;;;;;;6.30;1.52;;;12.20;99.90;;;12.38;70.58;98316.38;4998790;28;20054;-83
2023/11/02 00:09:34;;;;;;;4.43;0.88;;;12.20;99.90;;;12.37;71.08;98314.78;5015741;28;20133;-83
2023/11/02 00:12:04;;;;;;;10.70;1.00;;;12.20;99.90;;;12.36;70.98;98321.22;4986517;28;20046;-83
2023/11/02 00:14:52;;;;;;;4.97;1.02;;;12.10;99.90;;;12.39;71.64;98322.53;5016202;28;20121;-83
2023/11/02 00:17:49;;;;;;;3.17;1.02;;;12.10;99.90;;;12.37;71.38;98285.38;5016304;28;20046;-83
2023/11/02 00:20:39;;;;;;;3.80;1.00;;;12.10;99.90;;;12.39;71.59;98295.78;4998135;28;20528;-83
2023/11/02 00:23:09;;;;;;;3.33;1.27;;;12.10;99.90;;;12.29;71.17;98287.84;5016624;28;20049;-82
2023/11/02 00:25:50;;;;;;;2.58;0.93;;;12.10;99.90;;;12.23;71.57;98295.09;5015685;28;20053;-83
2023/11/02 00:28:18;;;;;;;5.30;1.27;;;12.00;99.90;;;12.23;71.37;98284.41;4998271;28;20076;-83
2023/11/02 00:30:48;;;;;;;5.35;1.02;;;12.10;99.90;;;12.26;71.56;98283.84;4982049;28;20108;-82
2023/11/02 00:33:16;;;;;;;3.42;1.05;;;12.10;99.90;;;12.24;70.97;98291.34;5016346;28;20049;-82
2023/11/02 00:35:45;;;;;;;5.00;1.17;;;12.00;99.90;;;12.21;70.85;98281.22;4998144;28;20042;-83
2023/11/02 00:38:21;;;;;;;4.05;1.35;;;12.00;99.90;;;12.23;71.76;98272.91;5015017;28;20100;-82
2023/11/02 00:40:50;;;;;;;4.95;1.15;;;12.10;99.90;;;12.25;71.37;98266.22;4993266;28;20046;-82
2023/11/02 00:43:21;;;;;;;5.03;1.23;;;12.10;99.90;;;12.23;71.86;98255.00;4998288;28;20046;-82
2023/11/02 00:45:50;;;;;;;4.18;1.00;;;12.00;99.90;;;12.27;71.99;98250.69;4998329;28;20046;-83
2023/11/02 00:48:21;;;;;;;3.47;1.00;;;12.10;99.90;;;12.29;71.95;98248.53;4998068;28;20034;-83
2023/11/02 00:51:19;;;;;;;5.72;1.20;;;12.00;99.90;;;12.30;71.66;98241.34;4998970;28;20505;-82
2023/11/02 00:53:54;;;;;;;7.85;1.30;;;12.10;99.90;;;12.28;71.44;98236.25;4983885;28;20068;-83
2023/11/02 00:56:23;;;;;;;4.20;1.10;;;12.10;99.90;;;12.19;71.26;98232.56;5020217;28;20060;-82
2023/11/02 00:58:53;;;;;;;3.70;1.40;;;12.10;99.90;;;12.24;71.66;98216.50;5020077;28;20046;-82
2023/11/02 01:01:24;;;;;;;5.30;1.20;;;12.10;99.90;;;12.27;71.43;98218.63;5001186;28;20050;-83
2023/11/02 01:03:56;;;;;;;4.50;1.20;;;12.10;99.90;;;12.30;71.15;98210.06;5019069;28;20445;-82
2023/11/02 01:06:28;;;;;;;5.00;0.90;;;12.10;99.90;;;12.31;71.31;98192.94;5001248;28;20644;-82
2023/11/02 01:09:03;;;;;;;4.32;0.98;;;12.10;99.90;;;12.32;70.47;98175.84;5001155;28;20096;-82
2023/11/02 01:11:34;;;;;;;6.72;1.10;;;12.20;99.90;;;12.34;70.86;98164.84;5003509;28;20527;-82
2023/11/02 01:14:27;;;;;;;5.40;1.25;;;12.10;99.90;;;12.35;70.77;98169.94;5002445;28;20057;-82
2023/11/02 01:16:54;;;;;;;6.25;1.10;;;12.20;99.90;;;12.33;71.16;98157.91;5019615;28;20065;-82
2023/11/02 01:19:57;;;;;;;5.30;0.88;;;12.20;99.90;;;12.30;70.71;98158.50;5020486;28;20069;-83
2023/11/02 01:22:54;;;;;;;3.83;0.95;;;12.10;99.90;;;12.24;70.49;98147.03;5017975;28;20081;-82
2023/11/02 01:25:28;;;;;;;8.05;1.10;;;12.10;99.90;;;12.32;70.79;98137.63;5003060;28;20505;-82
2023/11/02 01:28:07;;;;;;;3.13;0.98;;;12.20;99.90;;;12.34;71.00;98128.22;5002514;28;20061;-83
2023/11/02 01:31:15;;;;;;;5.35;1.25;;;12.20;99.90;;;12.35;70.75;98116.47;5019904;28;20050;-83
2023/11/02 01:34:00;;;;;;;6.55;1.15;;;12.20;99.90;;;12.37;71.15;98114.31;5002435;28;20501;-82
2023/11/02 01:36:40;;;;;;;6.55;1.00;;;12.20;99.90;;;12.41;70.70;98100.41;5002831;28;20046;-82
2023/11/02 01:40:03;;;;;;;6.78;1.48;;;12.20;99.90;;;12.40;70.10;98109.50;5002454;28;20053;-82
2023/11/02 01:42:43;;;;;;;3.40;0.90;;;12.20;99.90;;;12.36;70.35;98095.91;5003018;28;20081;-82
2023/11/02 01:45:24;;;;;;;6.00;1.15;;;12.20;99.90;;;12.40;70.57;98082.78;5002142;28;20052;-83
2023/11/02 01:48:05;;;;;;;6.45;1.15;;;12.30;99.90;;;12.42;70.36;98081.41;5001463;28;20049;-82
2023/11/02 01:50:35;;;;;;;;;;;12.30;99.90;;;12.44;70.65;98070.41;5012902;28;20058;-82
2023/11/02 01:53:41;;;;;;;3.70;1.15;;;12.30;99.90;;;12.33;69.52;98056.34;5019823;28;19921;-82
2023/11/02 01:56:44;;;;;;;3.17;0.90;;;12.20;99.90;;;12.34;70.08;98045.38;4991776;28;20100;-82
2023/11/02 01:59:26;;;;;;;4.57;1.00;;;12.20;99.90;;;12.34;70.51;98045.38;5001674;28;20050;-82
2023/11/02 02:02:05;;;;;;;5.60;1.20;;;12.20;99.90;;;12.38;70.13;98035.72;4986447;28;20064;-82
2023/11/02 02:04:42;;;;;;;4.18;1.17;;;12.20;99.90;;;12.33;69.84;98019.72;5000983;28;20130;-82
2023/11/02 02:07:19;;;;;;;4.35;1.33;;;12.20;99.90;;;12.38;70.69;98008.97;5018310;28;20057;-82
2023/11/02 02:10:07;;;;;;;3.55;1.10;;;12.20;99.90;;;12.40;70.23;98000.69;5001113;28;20073;-82
2023/11/02 02:13:09;;;;;;;3.70;1.38;;;12.20;99.90;;;12.46;70.55;98004.09;5018873;28;20413;-82
2023/11/02 02:15:54;;;;;;;5.70;1.20;;;12.30;99.90;;;12.49;70.64;97998.19;4969425;28;20046;-82
2023/11/02 02:18:32;;;;;;;5.57;1.10;;;12.30;99.90;;;12.49;70.49;97985.63;5001439;28;20513;-83
2023/11/02 02:21:10;;;;;;;6.72;1.70;;;12.20;99.90;;;12.49;70.33;97979.47;4985330;28;20046;-83
2023/11/02 02:23:48;;;;;;;6.78;1.27;;;12.30;99.90;;;12.50;69.63;97957.81;4970798;28;20061;-82
2023/11/02 02:26:54;;;;;;;3.90;1.10;;;12.30;99.90;;;12.48;70.51;97946.59;4985491;28;20413;-83
2023/11/02 02:30:07;;;;;;;5.03;1.40;;;12.30;99.90;;;12.48;69.99;97929.75;5001017;28;20046;-82
2023/11/02 02:33:25;;;;;;;3.50;1.17;;;12.20;99.90;;;12.47;69.60;97920.16;4968318;28;20041;-82
2023/11/02 02:36:02;;;;;;;4.30;1.30;;;12.20;99.90;;;12.46;69.78;97911.34;5005399;28;20050;-82
2023/11/02 02:38:41;;;;;;;6.50;1.45;;;12.10;99.90;;;12.42;69.77;97902.28;5000273;28;20113;-82
2023/11/02 02:41:11;;;;;;;5.95;1.50;;;12.20;99.90;;;12.45;69.88;97884.91;5019039;28;20050;-82
2023/11/02 02:43:41;;;;;;;3.67;1.40;;;12.20;99.90;;;12.41;69.43;97863.28;4969449;28;20421;-82
2023/11/02 02:46:11;;;;;;;5.72;1.40;;;12.20;99.90;;;12.39;69.84;97865.44;5000868;28;20042;-82
2023/11/02 02:48:39;;;;;;;7.85;1.83;;;12.20;99.90;;;12.40;70.25;97858.25;5001156;28;20070;-82
2023/11/02 02:51:11;;;;;;;6.45;1.17;;;12.20;99.90;;;12.38;70.11;97861.97;5000499;28;20060;-82
2023/11/02 02:53:40;;;;;;;6.70;1.70;;;12.20;99.90;;;12.35;69.88;97859.09;5018727;28;20094;-82
2023/11/02 02:56:14;;;;;;;5.55;1.40;;;12.20;99.90;;;12.35;70.24;97851.09;4984823;28;20064;-82
2023/11/02 02:58:52;;;;;;;4.65;1.23;;;12.20;99.90;;;12.36;69.50;97842.78;4985377;28;20065;-82
2023/11/02 03:01:22;;;;;;;3.83;1.23;;;12.20;99.90;;;12.30;69.52;97830.56;5001934;28;20065;-82
2023/11/02 03:03:49;;;;;;;4.13;1.40;;;12.20;99.90;;;12.31;70.16;97824.13;5001030;28;20050;-82
2023/11/02 03:06:20;;;;;;;5.75;1.52;;;12.20;99.90;;;12.32;70.05;97800.88;5018789;28;20046;-82
2023/11/02 03:08:49;;;;;;;4.03;1.30;;;12.20;99.90;;;12.33;70.23;97802.44;5017291;28;20088;-82
2023/11/02 03:11:19;;;;;;;5.20;1.30;;;12.20;99.90;;;12.30;69.82;97797.69;4999967;28;20273;-82
2023/11/02 03:13:48;;;;;;;5.72;1.40;;;12.20;99.90;;;12.30;69.99;97803.84;4985125;28;20038;-82
2023/11/02 03:16:17;;;;;;;8.38;1.50;;;12.20;99.90;;;12.29;69.95;97810.25;5002075;28;20037;-82
2023/11/02 03:18:45;;;;;;;5.05;1.33;;;12.20;99.90;;;12.32;70.24;97790.97;5001795;28;20042;-82
2023/11/02 03:21:14;;;;;;;7.03;1.55;;;12.20;99.90;;;12.28;69.50;97776.59;5000800;28;20551;-82
2023/11/02 03:23:55;;;;;;;6.65;1.50;;;12.20;99.90;;;12.23;70.02;97760.63;5000887;28;20471;-82
2023/11/02 03:26:33;;;;;;;6.53;1.88;;;12.20;99.90;;;12.27;70.49;97753.63;4985226;28;20049;-82
2023/11/02 03:29:11;;;;;;;4.95;1.33;;;12.20;99.90;;;12.28;70.61;97733.84;5001110;28;20041;-82
2023/11/02 03:31:48;;;;;;;4.55;1.45;;;12.20;99.90;;;12.31;70.99;97725.25;4985555;28;20045;-82
2023/11/02 03:34:24;;;;;;;3.70;1.25;;;12.20;99.90;;;12.31;70.60;97692.38;4984542;28;20046;-82
2023/11/02 03:37:30;;;;;;;7.25;1.45;;;12.20;99.90;;;12.33;71.09;97707.03;5000413;28;20052;-82
2023/11/02 03:40:20;;;;;;;6.40;1.50;;;12.20;99.90;;;12.31;70.92;97693.19;5000538;28;20527;-82
2023/11/02 03:42:59;;;;;;;6.93;1.80;;;12.20;99.90;;;12.31;69.83;97690.50;4974385;28;20050;-82
2023/11/02 03:45:46;;;;;;;7.40;1.90;;;12.20;99.90;;;12.30;70.58;97664.88;5017491;28;20041;-82
2023/11/02 03:48:34;;;;;;;5.80;1.50;;;12.20;99.90;;;12.33;70.78;97648.22;4992657;28;20050;-82
2023/11/02 03:51:29;;;;;;;5.95;1.48;;;12.20;99.90;;;12.29;69.92;97638.41;5000186;28;20050;-82
2023/11/02 03:54:15;;;;;;;4.57;1.38;;;12.20;99.90;;;12.30;70.42;97629.34;5002721;28;20498;-82
2023/11/02 03:57:08;;;;;;;6.25;1.48;;;12.20;99.90;;;12.27;71.46;97612.00;5018854;28;20097;-82
2023/11/02 03:59:47;;;;;;;9.40;1.50;;;12.20;99.90;;;12.29;71.56;97617.03;4970639;28;20046;-82
2023/11/02 04:02:29;;;;;;;7.82;1.50;;;12.20;99.90;;;12.23;71.58;97584.28;5018749;28;20046;-82
2023/11/02 04:05:08;;;;;;;4.25;1.30;;;12.10;99.90;;;12.24;71.47;97571.69;5000833;28;20046;-82
2023/11/02 04:08:00;;;;;;;3.15;1.08;;;12.10;99.90;;;12.21;70.95;97556.28;4985744;28;20038;-82
2023/11/02 04:10:31;;;;;;;5.80;1.70;;;12.10;99.90;;;12.19;70.73;97542.41;5000960;28;20046;-82
2023/11/02 04:13:21;;;;;;;8.40;1.20;;;12.10;99.90;;;12.17;70.14;97547.25;4997679;28;20502;-83
2023/11/02 04:15:52;;;;;;;7.50;1.57;;;12.10;99.90;;;12.18;70.89;97549.63;4985799;28;20100;-82
2023/11/02 04:18:19;;;;;;;6.00;1.42;;;12.10;99.90;;;12.19;70.34;97555.75;5000869;28;20081;-82
2023/11/02 04:20:51;;;;;;;5.05;1.20;;;12.10;99.90;;;12.22;70.75;97541.81;5019167;28;20068;-82
2023/11/02 04:23:21;;;;;;;6.75;1.20;;;12.10;99.90;;;12.26;70.29;97534.81;5001558;28;20054;-82
2023/11/02 04:25:50;;;;;;;3.53;1.10;;;12.10;99.90;;;12.22;68.66;97521.22;5001188;28;20076;-82
2023/11/02 04:28:19;;;;;;;9.48;1.38;;;12.20;99.90;;;12.17;69.69;97505.28;5000634;28;20061;-82
2023/11/02 04:30:48;;;;;;;5.57;1.20;;;12.10;99.90;;;12.20;70.04;97499.38;5022974;28;20038;-82
2023/11/02 04:33:16;;;;;;;4.05;1.42;;;12.10;99.90;;;12.17;70.02;97477.78;5004837;28;20464;-82
2023/11/02 04:35:45;;;;;;;6.88;1.23;;;12.10;99.90;;;12.16;70.11;97463.63;5022948;28;20042;-82
2023/11/02 04:38:13;;;;;;;5.65;1.30;;;12.10;99.90;;;12.14;69.26;97447.09;4988625;28;20521;-82
2023/11/02 04:40:40;;;;;;;6.63;1.80;;;12.10;99.90;;;12.16;69.98;97412.88;5004601;28;20133;-82
2023/11/02 04:43:08;;;;;;;6.43;1.50;;;12.10;99.90;;;12.17;69.87;97417.13;5022088;28;20049;-82
2023/11/02 04:45:37;;;;;;;4.82;1.30;;;12.10;99.90;;;12.17;69.41;97387.75;5021907;28;20576;-82
2023/11/02 04:48:07;;;;;;;5.93;1.50;;;12.10;99.90;;;12.21;70.11;97327.28;5005730;28;20050;-82
2023/11/02 04:50:34;;;;;;;3.88;1.30;;;12.10;99.90;;;12.22;69.84;97282.66;5005794;28;20456;-82
2023/11/02 04:53:02;;;;;;;7.55;1.33;;;12.10;99.90;;;12.20;68.67;97213.50;5023043;28;20037;-82
2023/11/02 04:55:29;;;;;;;5.20;1.38;;;12.10;99.90;;;12.11;67.26;97132.50;4988905;28;20072;-82
2023/11/02 04:57:57;;;;;;;4.88;1.50;;;12.10;99.90;;;12.13;67.37;97071.53;5002898;28;20124;-82
2023/11/02 05:00:25;;;;;;;6.78;1.20;;;12.10;99.90;;;12.08;66.85;97061.75;5005615;28;20478;-82
2023/11/02 05:02:54;;;;;;;4.60;1.63;;;12.10;99.90;;;12.05;66.37;97165.72;5004948;28;20052;-84
2023/11/02 05:05:21;;;;;;;6.60;1.15;;;12.00;99.90;;;12.01;66.88;97151.44;5022059;28;20069;-82
2023/11/02 05:07:48;;;;;;;5.63;1.20;;;12.10;99.90;;;12.01;65.84;97108.69;5004284;28;20050;-82
2023/11/02 05:10:16;;;;;;;5.10;1.15;;;12.10;99.90;;;12.06;66.75;97152.09;5003318;28;20065;-82
2023/11/02 05:12:45;;;;;;;5.30;1.20;;;12.10;99.90;;;12.10;66.91;97185.13;5004153;28;20046;-83
2023/11/02 05:15:12;;;;;;;5.85;1.20;;;12.20;99.90;;;12.09;66.22;97204.09;5025047;28;20048;-82
2023/11/02 05:17:40;;;;;;;4.28;1.45;;;12.10;99.90;;;12.10;66.43;97150.41;5002676;28;20073;-83
2023/11/02 05:20:12;;;;;;;7.20;1.10;;;12.10;99.90;;;12.13;66.53;97135.63;5003449;28;20073;-82
2023/11/02 05:22:40;;;;;;;6.80;1.67;;;12.10;99.90;;;12.14;66.26;97126.53;5006442;28;20049;-83
2023/11/02 05:25:08;;;;;;;3.55;1.20;;;12.20;99.90;;;12.14;66.48;97115.84;5005157;28;20046;-83
2023/11/02 05:27:36;;;;;;;3.88;1.08;;;12.20;99.90;;;12.17;66.62;97120.59;4986036;28;20052;-83
2023/11/02 05:30:04;;;;;;;6.15;1.30;;;12.20;99.90;;;12.16;66.49;97068.25;5006216;28;20042;-82
2023/11/02 05:32:38;;;;;;;4.22;1.08;;;12.20;99.90;;;12.10;65.54;97056.09;5008174;28;20116;-82
2023/11/02 05:35:12;;;;;;;8.48;1.30;;;12.20;99.90;;;12.07;65.71;97048.72;5025935;28;20501;-82
2023/11/02 05:37:40;;;;;;;4.90;1.17;;;12.20;99.90;;;12.06;65.98;97055.94;5021245;28;20511;-82
2023/11/02 05:40:09;;;;;;;4.65;1.10;;;12.10;99.90;;;12.07;66.73;97057.50;5023030;28;20042;-84
2023/11/02 05:42:37;;;;;;;4.40;1.13;;;12.20;99.90;;;12.05;66.72;97050.88;5025646;28;20048;-84
2023/11/02 05:45:07;;;;;;;4.07;0.90;;;12.20;99.90;;;12.03;66.52;97029.03;5007866;28;20133;-84
2023/11/02 05:47:35;;;;;;;6.72;0.95;;;12.10;99.90;;;12.07;67.11;96974.72;5022874;28;20046;-83
2023/11/02 05:50:03;;;;;;;6.72;1.10;;;12.10;99.90;;;12.06;66.68;96962.47;5029176;28;20068;-84
2023/11/02 05:52:34;;;;;;;3.72;0.98;;;12.10;99.90;;;12.08;67.70;96956.81;4995766;28;20493;-83
2023/11/02 05:55:01;;;;;;;5.57;1.17;;;12.10;99.90;;;12.10;67.38;97008.03;5009935;28;20050;-83
2023/11/02 05:57:28;;;;;;;4.15;1.13;;;12.10;99.90;;;12.09;67.25;97014.47;5028846;28;20056;-83
2023/11/02 05:59:58;;;;;;;5.13;1.13;;;12.10;99.90;;;12.08;67.00;96976.28;5029747;28;20046;-83
2023/11/02 06:02:28;;;;;;;4.93;1.10;;;12.10;99.90;;;12.06;66.94;96973.16;4971843;28;20077;-82
2023/11/02 06:04:55;;;;;;;4.30;1.13;;;12.10;99.90;;;12.05;66.33;96987.59;5011669;28;20045;-83
2023/11/02 06:07:23;;;;;;;4.47;1.38;;;12.10;99.90;;;12.05;65.90;96952.06;5011914;28;20045;-82
2023/11/02 06:09:52;;;;;;;3.20;1.08;;;12.10;99.90;;;12.07;65.67;96973.94;5007566;28;20092;-83
2023/11/02 06:12:22;;;;;;;3.60;1.10;;;12.20;99.90;;;12.08;66.71;96959.47;5007866;28;20549;-82
2023/11/02 06:14:53;;;;;;;3.88;1.17;;;12.20;99.90;;;12.13;66.91;96954.00;5006987;28;20038;-82
2023/11/02 06:17:21;;;;;;;6.10;1.40;;;12.20;99.90;;;12.17;66.50;96954.19;5021318;28;20128;-82
2023/11/02 06:19:48;;;;;;;4.20;0.90;;;12.20;99.90;;;12.17;66.69;96992.34;5009869;28;20141;-82
2023/11/02 06:22:16;;;;;;;4.18;0.90;;;12.30;99.90;;;12.15;65.98;97026.63;5012362;28;20097;-83
2023/11/02 06:24:45;;;;;;;7.28;0.98;;;12.30;99.90;;;12.21;66.83;97037.97;5027864;28;20092;-82
2023/11/02 06:27:14;;;;;;;4.38;1.30;;;12.30;99.90;;;12.18;67.02;97052.69;5027849;28;20046;-83
2023/11/02 06:29:42;;;;;;;5.22;1.05;;;12.30;99.90;;;12.21;66.46;97070.81;5012246;28;20098;-81
2023/11/02 06:32:12;;;;;;;2.95;0.88;;;12.30;99.90;;;12.16;66.78;97060.25;4996214;28;20046;-81
2023/11/02 06:34:40;;;;;;;5.30;1.15;;;12.30;99.90;;;12.17;67.16;97037.78;5031059;28;20046;-82
2023/11/02 06:37:08;;;;;;;3.70;0.93;;;12.30;99.90;;;12.14;67.33;97035.69;4996323;28;20056;-81
2023/11/02 06:39:37;;;;;;;3.10;0.80;;;12.30;99.90;;;12.18;67.39;97031.34;5030346;28;20064;-81
2023/11/02 06:42:05;;;;;;;8.70;1.10;;;12.30;99.90;;;12.21;67.25;97045.97;5029511;28;20052;-81
2023/11/02 06:44:34;;;;;;;4.07;1.23;;;12.30;99.90;;;12.23;67.51;97063.25;5012157;28;20113;-82
2023/11/02 06:47:03;;;;;;;3.38;0.93;;;12.30;99.90;;;12.22;67.59;97080.38;4978277;28;20065;-82
2023/11/02 06:49:30;;;;;;;4.47;1.20;;;12.40;99.90;;;12.25;67.72;97069.09;4992513;28;20041;-82
2023/11/02 06:52:02;;;;;;;3.45;1.10;;;12.40;99.90;;;12.24;67.59;97066.72;5008186;28;20058;-81
2023/11/02 06:54:29;;;;;;;;;;;12.40;99.90;;;12.28;67.72;97110.44;5013067;28;20046;-81
2023/11/02 06:56:56;;;;;;;4.90;1.60;;;12.40;99.90;;;12.25;68.06;97085.13;5030340;28;19928;-83
2023/11/02 06:59:27;;;;;;;6.35;1.25;;;12.40;99.90;;;12.31;68.22;97112.50;5030583;28;20042;-82
2023/11/02 07:01:56;;;;;;;5.47;1.20;;;12.40;99.90;;;12.28;67.86;97113.91;5029592;28;20046;-81
2023/11/02 07:04:24;;;;;;;2.83;1.00;;;12.50;99.90;;;12.34;68.34;97117.22;5015671;28;20113;-82
2023/11/02 07:06:51;;;;;;;2.78;0.88;;;12.50;99.90;;;12.37;68.06;97124.66;5013419;28;20058;-81
2023/11/02 07:09:19;;;;;;;3.45;0.90;;;12.50;99.90;;;12.40;68.19;97109.91;5013560;28;20042;-82
2023/11/02 07:11:46;;;;;;;5.85;0.90;;;12.50;99.90;;;12.41;68.11;97119.50;4977504;28;20114;-82
2023/11/02 07:14:14;;;;;;;2.67;0.90;;;12.50;99.90;;;12.42;68.94;97113.03;5000551;28;20037;-82
2023/11/02 07:16:42;;;;;;;5.75;0.90;;;12.50;99.90;;;12.44;69.75;97102.81;5012269;28;20098;-82
2023/11/02 07:19:11;;;;;;;6.28;0.98;;;12.50;99.90;;;12.46;70.23;97097.97;4977300;28;20046;-82
2023/11/02 07:21:38;;;;;;;4.03;0.80;;;12.50;99.90;;;12.42;70.06;97097.00;5012449;28;20073;-82
2023/11/02 07:24:07;;;;;;;4.57;0.93;;;12.50;99.90;;;12.37;71.38;97082.66;5007947;28;20097;-83
2023/11/02 07:26:38;;;;;;;3.45;0.93;;;12.50;99.90;;;12.37;72.20;97082.66;5031105;28;20025;-82
2023/11/02 07:29:06;;;;;;;3.17;0.90;;;12.40;99.90;;;12.31;72.88;97083.91;4998123;28;20521;-82
2023/11/02 07:31:34;;;;;;;4.20;1.15;;;12.40;99.90;;;12.33;73.21;97087.03;5010105;28;20034;-82
2023/11/02 07:34:02;;;;;;;4.22;1.00;;;12.40;99.90;;;12.33;74.14;97070.22;5020869;28;20057;-82
2023/11/02 07:36:31;;;;;;;2.80;0.80;;;12.40;99.90;;;12.34;73.85;97059.22;5032334;28;20057;-82
2023/11/02 07:38:58;;;;;;;3.78;1.13;;;12.30;99.90;;;12.32;74.43;97069.44;5014395;28;20042;-82
2023/11/02 07:41:25;;;;;;;3.33;0.90;;;12.30;99.90;;;12.27;74.93;97060.78;5014046;28;20050;-82
2023/11/02 07:43:53;;;;;;;4.65;0.77;;;12.30;99.90;;;12.29;75.16;97045.22;5014480;28;20022;-81
2023/11/02 07:46:20;;;;;;;4.25;1.17;;;12.30;99.90;;;12.32;74.95;97063.31;5026767;28;20050;-82
2023/11/02 07:48:48;;;;;;;2.10;0.70;;;12.30;99.90;;;12.29;74.91;97055.91;5008852;28;20046;-81
2023/11/02 07:51:19;;;;;;;4.65;0.90;;;12.30;99.90;;;12.23;75.32;97039.22;5027560;28;20041;-82
2023/11/02 07:53:50;;;;;;;4.18;1.08;;;12.20;99.90;;;12.24;75.53;97042.66;4978126;28;20417;-81
2023/11/02 07:56:17;;;;;;;1.83;0.80;;;11.90;99.90;;;12.20;75.53;97023.00;5016184;28;20052;-82
2023/11/02 07:58:46;;;;;;;4.10;0.90;;;12.20;99.90;;;12.20;75.54;97031.84;5008423;28;20057;-82
2023/11/02 08:01:17;;;;;;;3.43;0.77;;;12.20;99.90;;;12.24;75.34;97014.06;4976488;28;20110;-82
2023/11/02 08:03:45;;;;;;;3.75;0.70;;;12.20;99.90;;;12.23;75.53;97009.03;5025906;28;20101;-81
2023/11/02 08:06:12;;;;;;;3.05;0.75;;;12.20;99.90;;;12.24;75.22;97007.94;5027641;28;20049;-82
2023/11/02 08:08:40;;;;;;;3.60;0.90;;;12.20;99.90;;;12.23;75.25;97007.16;5008924;28;20046;-81
2023/11/02 08:11:09;;;;;;;3.67;0.80;;;12.20;99.90;;;12.25;75.07;97006.84;5008773;28;20056;-82
2023/11/02 08:13:37;;;;;;;2.25;0.80;;;12.20;99.90;;;12.27;75.23;97036.72;5026500;28;20102;-82
2023/11/02 08:16:05;;;;;;;1.88;0.80;;;12.30;99.90;;;12.27;75.25;97002.00;5007516;28;20488;-82
2023/11/02 08:18:33;;;;;;;4.03;0.80;;;12.30;99.90;;;12.29;75.20;97003.25;5006517;28;20046;-82
2023/11/02 08:21:05;;;;;;;2.85;0.77;;;12.30;99.90;;;12.27;74.95;96991.31;4972450;28;20065;-82
2023/11/02 08:23:33;;;;;;;7.57;0.80;;;12.30;99.90;;;12.27;75.43;96986.75;4967671;28;20122;-81
2023/11/02 08:26:01;;;;;;;2.67;0.75;;;12.30;99.90;;;12.31;75.33;96981.59;5024853;28;20069;-81
2023/11/02 08:28:33;;;;;;;3.08;0.82;;;12.30;99.90;;;12.31;74.77;96998.41;5023496;28;20061;-82
2023/11/02 08:31:05;;;;;;;4.65;1.00;;;12.30;99.90;;;12.32;75.03;96970.56;5004855;28;20448;-82
2023/11/02 08:33:32;;;;;;;;;;;12.30;99.90;;;12.35;74.58;96979.88;5022499;28;20049;-82
2023/11/02 08:35:59;;;;;;;3.83;0.80;;;12.40;99.90;;;12.37;74.80;96961.63;4973267;28;20000;-81
2023/11/02 08:38:27;;;;;;;2.85;0.85;;;12.40;99.90;;;12.37;74.53;96965.09;5024119;28;20121;-81
2023/11/02 08:40:54;;;;;;;6.68;1.17;;;12.40;99.90;;;12.38;74.48;96955.97;4985738;28;20085;-82
2023/11/02 08:43:23;;;;;;;3.72;0.98;;;12.40;99.90;;;12.37;73.92;96945.59;4988298;28;20066;-82
2023/11/02 08:45:52;;;;;;;4.50;1.02;;;12.40;99.90;;;12.42;74.44;96944.69;5006921;28;20042;-81
2023/11/02 08:48:20;;;;;;;4.90;0.90;;;12.40;99.90;;;12.38;74.46;96950.63;5006925;28;20053;-82
2023/11/02 08:50:47;;;;;;;2.08;0.65;;;12.40;99.90;;;12.37;74.05;96930.34;5007098;28;20136;-81
2023/11/02 08:53:16;;;;;;;3.17;0.90;;;12.40;99.90;;;12.37;74.37;96924.22;5027558;28;20054;-82
2023/11/02 08:55:45;;;;;;;2.50;0.80;;;12.40;99.90;;;12.38;74.53;96918.56;5026890;28;20073;-82
2023/11/02 08:58:13;;;;;;;2.47;0.90;;;12.40;99.90;;;12.40;74.29;96912.16;4990548;28;20046;-82
2023/11/02 09:00:40;;;;;;;5.05;1.25;;;12.40;99.90;;;12.37;74.52;96878.81;4953588;28;20050;-82
2023/11/02 09:03:10;;;;;;;3.80;1.10;;;12.40;99.90;;;12.40;74.13;96864.03;5023180;28;20056;-82
2023/11/02 09:05:39;;;;;;;4.43;0.90;;;12.40;99.90;;;12.38;74.29;96881.16;5008454;28;20444;-81
2023/11/02 09:08:08;;;;;;;2.60;1.00;;;12.40;99.90;;;12.39;74.10;96860.56;5007177;28;20052;-81
2023/11/02 09:10:35;;;;;;;3.10;1.00;;;12.40;99.90;;;12.41;74.10;96852.25;5023828;28;20129;-82
2023/11/02 09:13:03;;;;;;;3.28;0.90;;;12.40;99.90;;;12.44;73.83;96835.56;5023621;28;20089;-82
2023/11/02 09:15:30;;;;;;;2.75;0.80;;;12.40;99.90;;;12.46;73.82;96860.13;5024726;28;20046;-82
2023/11/02 09:17:59;;;;;;;2.97;0.80;;;12.50;99.90;;;12.45;74.21;96853.22;5010363;28;20042;-82
2023/11/02 09:20:28;;;;;;;4.20;1.10;;;12.50;99.90;;;12.50;74.41;96869.09;5027696;28;20038;-82
2023/11/02 09:22:56;;;;;;;3.30;0.90;;;12.50;99.90;;;12.53;74.39;96881.81;5029693;28;20057;-83
2023/11/02 09:25:23;;;;;;;2.83;0.80;;;12.60;99.90;;;12.50;74.28;96875.22;5010878;28;20072;-82
2023/11/02 09:27:51;;;;;;;3.28;1.08;;;12.60;99.90;;;12.54;74.07;96888.72;4984092;28;20053;-83
2023/11/02 09:30:19;;;;;;;2.72;1.05;;;12.50;99.90;;;12.55;74.16;96888.44;5010119;28;20490;-82
2023/11/02 09:32:46;;;;;;;1.90;0.70;;;12.60;99.90;;;12.60;74.65;96877.59;4979428;28;20054;-82
2023/11/02 09:35:16;;;;;;;4.53;1.13;;;12.60;99.90;;;12.65;74.48;96870.53;4979446;28;20551;-81
2023/11/02 09:37:45;;;;;;;3.72;1.10;;;12.70;99.90;;;12.70;74.36;96863.13;5011548;28;20050;-81
2023/11/02 09:40:13;;;;;;;3.30;0.90;;;12.80;99.90;;;12.73;74.60;96873.19;5027452;28;20093;-81
2023/11/02 09:42:41;;;;;;;5.47;1.25;;;12.80;99.90;;;12.75;74.19;96872.88;5028152;28;20057;-81
2023/11/02 09:45:09;;;;;;;3.67;1.00;;;12.80;99.90;;;12.79;74.40;96860.47;5028223;28;20042;-81
2023/11/02 09:47:38;;;;;;;4.90;1.27;;;12.90;99.90;;;12.79;74.24;96863.16;4979205;28;20045;-82
2023/11/02 09:50:08;;;;;;;4.63;1.40;;;12.90;99.90;;;12.81;73.98;96851.03;5008489;28;20047;-82
2023/11/02 09:52:36;;;;;;;3.03;0.93;;;12.90;99.90;;;12.86;73.85;96832.13;5020654;28;20054;-81
2023/11/02 09:55:06;;;;;;;3.05;1.10;;;12.90;99.90;;;12.88;73.99;96831.81;4989287;28;20065;-81
2023/11/02 09:57:34;;;;;;;2.47;0.95;;;13.00;99.90;;;12.89;74.05;96839.53;4995239;28;20042;-81
2023/11/02 10:00:07;;;;;;;3.08;0.90;;;13.00;99.90;;;12.92;73.51;96831.97;4997085;28;20043;-82
2023/11/02 10:02:40;;;;;;;3.15;0.85;;;13.00;99.90;;;12.89;72.72;96841.44;5019232;28;20042;-81
2023/11/02 10:05:10;;;;;;;3.35;1.10;;;13.00;99.90;;;12.94;73.40;96832.47;4971280;28;20046;-82
2023/11/02 10:07:37;;;;;;;3.05;1.08;;;13.10;99.90;;;12.96;73.51;96838.28;4965981;28;20124;-81
2023/11/02 10:10:09;;;;;;;4.72;1.00;;;13.20;99.90;;;13.02;73.35;96845.03;4995456;28;20675;-81
2023/11/02 10:12:41;;;;;;;6.78;1.40;;;13.20;99.90;;;13.05;73.69;96828.34;4993083;28;20133;-83
2023/11/02 10:15:10;;;;;;;;;;;13.20;99.90;;;13.09;73.42;96823.94;4995885;28;20046;-83
2023/11/02 10:17:38;;;;;;;4.25;1.10;;;13.20;99.90;;;13.07;73.13;96816.22;4988040;28;19921;-83
2023/11/02 10:20:10;;;;;;;4.25;1.40;;;13.20;99.90;;;13.09;72.52;96829.31;5000293;28;20054;-83
2023/11/02 10:22:38;;;;;;;6.07;1.10;;;13.20;99.90;;;13.14;72.76;96818.44;4980216;28;20149;-83
2023/11/02 10:25:08;;;;;;;4.07;1.20;;;13.30;99.90;;;13.14;72.72;96827.25;5011921;28;20043;-85
2023/11/02 10:27:39;;;;;;;6.73;1.30;;;13.30;99.90;;;13.18;72.48;96838.09;4986529;28;20054;-84
2023/11/02 10:30:09;;;;;;;5.55;1.25;;;13.40;99.90;;;13.21;71.97;96837.44;5014905;28;20489;-83
2023/11/02 10:32:39;;;;;;;4.70;0.90;;;13.40;99.90;;;13.23;71.43;96821.91;5022890;28;20065;-83
2023/11/02 10:35:08;;;;;;;7.97;1.50;;;13.40;99.90;;;13.23;71.50;96824.59;4990118;28;20046;-83
2023/11/02 10:37:37;;;;;;;7.03;1.42;;;13.40;99.90;;;13.26;72.08;96823.94;5003433;28;20056;-83
2023/11/02 10:40:16;;;;;;;4.77;1.13;;;13.50;99.90;;;13.27;71.48;96822.81;5005681;28;20053;-83
2023/11/02 10:42:45;;;;;;;4.60;1.27;;;13.50;99.90;;;13.31;71.60;96833.69;5005628;28;20057;-83
2023/11/02 10:45:16;;;;;;;3.25;1.02;;;13.50;99.90;;;13.31;70.67;96806.94;5002827;28;20045;-83